< < Back
Terminal Aerodrome Forecast


Current Version              Previous Versions:   1  2  3  4  5  6  7  8  9  

Terminal Aerodrome Forecast

685
FTUS42 KGSP 272300
TAFAVL
TAF
KAVL 272330Z 2800/2824 35006KT P6SM FEW250
     FM280600 00000KT 4SM BR FEW250
     FM280900 00000KT 1 1/2SM BR OVC009
     FM281400 00000KT P6SM SCT050 BKN250=



Latest METAR

524
SAUS70 KWBC 280500 RRB
MTRAVL
METAR KAVL 280454Z AUTO 00000KT 10SM CLR 18/16 A3013 RMK AO2 SLP178
T01780156 403000128


USA.gov is the U.S. government's official web portal to all federal, state and local government web resources and services.